Time;durP1;ratioP1;P1;durP2;ratioP2;P2;SDS_P1;SDS_P2;PMS_P1;PMS_P2;Temp;Humidity;BMP_temperature;BMP_pressure;BME280_temperature;BME280_humidity;BME280_pressure;Samples;Min_cycle;Max_cycle;Signal;HPM_P1;HPM_P2
2022/01/31 00:00:18;;;;;;;;;;;3.80;99.90;;;;;;5067983;28;19912;-84
2022/01/31 00:02:45;;;;;;;;;;;3.80;99.90;;;;;;5072610;28;19908;-85
2022/01/31 00:05:10;;;;;;;;;;;3.80;99.90;;;;;;5072682;28;19981;-85
2022/01/31 00:07:36;;;;;;;;;;;3.70;99.90;;;;;;5072784;28;19908;-85
2022/01/31 00:10:07;;;;;;;;;;;3.70;99.90;;;;;;5072867;28;19904;-85
2022/01/31 00:12:48;;;;;;;;;;;3.70;99.90;;;;;;5072500;28;19904;-84
2022/01/31 00:15:22;;;;;;;;;;;3.80;99.90;;;;;;5072425;28;20349;-84
2022/01/31 00:17:47;;;;;;;;;;;3.70;99.90;;;;;;5072976;28;19912;-85
2022/01/31 00:20:31;;;;;;;;;;;3.60;99.90;;;;;;5072404;28;19905;-85
2022/01/31 00:22:57;;;;;;;;;;;3.60;99.90;;;;;;5072717;28;19904;-84
2022/01/31 00:25:22;;;;;;;;;;;3.60;99.90;;;;;;5072910;28;19909;-85
2022/01/31 00:27:48;;;;;;;;;;;3.60;99.90;;;;;;5071530;28;19904;-85
2022/01/31 00:30:14;;;;;;;;;;;3.60;99.90;;;;;;5072525;28;19905;-85
2022/01/31 00:32:40;;;;;;;;;;;3.60;99.90;;;;;;5071493;28;19993;-85
2022/01/31 00:35:20;;;;;;;;;;;3.60;99.90;;;;;;5071024;28;19959;-85
2022/01/31 00:37:46;;;;;;;;;;;3.60;99.90;;;;;;5091643;28;19915;-85
2022/01/31 00:40:12;;;;;;;;;;;3.60;99.90;;;;;;5074869;28;19905;-85
2022/01/31 00:42:59;;;;;;;;;;;3.60;99.90;;;;;;5072631;28;19904;-85
2022/01/31 00:48:00;;;;;;;;;;;3.50;99.90;;;;;;5072928;28;19908;-85
2022/01/31 00:50:28;;;;;;;;;;;3.50;99.90;;;;;;5052473;28;19962;-85
2022/01/31 00:52:55;;;;;;;;;;;3.50;99.90;;;;;;5059911;28;19990;-84
2022/01/31 00:55:31;;;;;;;;;;;3.70;99.90;;;;;;5075630;28;20323;-85
2022/01/31 00:57:57;;;;;;;;;;;3.50;99.90;;;;;;5076050;28;19999;-84
2022/01/31 01:00:22;;;;;;;;;;;3.60;99.90;;;;;;5068065;28;19997;-84
2022/01/31 01:02:48;;;;;;;;;;;3.60;99.90;;;;;;5075904;28;19908;-85
2022/01/31 01:05:16;;;;;;;;;;;3.50;99.90;;;;;;5075631;28;20256;-85
2022/01/31 01:07:54;;;;;;;;;;;3.40;99.90;;;;;;5075607;28;19915;-85
2022/01/31 01:10:20;;;;;;;;;;;3.40;99.90;;;;;;5075604;28;19908;-85
2022/01/31 01:12:47;;;;;;;;;;;3.40;99.90;;;;;;5091776;28;19904;-85
2022/01/31 01:15:13;;;;;;;;;;;3.30;99.90;;;;;;5075735;28;19908;-85
2022/01/31 01:17:39;;;;;;;;;;;3.40;99.90;;;;;;5074262;28;20435;-85
2022/01/31 01:20:20;;;;;;;;;;;3.40;99.90;;;;;;5075019;28;19905;-84
2022/01/31 01:22:46;;;;;;;;;;;3.40;99.90;;;;;;5075648;28;19904;-85
2022/01/31 01:25:13;;;;;;;;;;;3.40;99.90;;;;;;5075030;28;19918;-84
2022/01/31 01:27:41;;;;;;;;;;;3.40;99.90;;;;;;5075255;28;19905;-85
2022/01/31 01:30:09;;;;;;;;;;;3.40;99.90;;;;;;5082240;28;19904;-85
2022/01/31 01:32:45;;;;;;;;;;;3.30;99.90;;;;;;5095544;28;19955;-85
2022/01/31 01:35:14;;;;;;;;;;;3.40;99.90;;;;;;5095518;28;19904;-85
2022/01/31 01:37:39;;;;;;;;;;;3.30;99.90;;;;;;5090761;28;19999;-84
2022/01/31 01:40:22;;;;;;;;;;;3.30;99.90;;;;;;5075305;28;19904;-85
2022/01/31 01:42:47;;;;;;;;;;;3.30;99.90;;;;;;5075058;28;20395;-85
2022/01/31 01:45:13;;;;;;;;;;;3.30;99.90;;;;;;5073778;28;19909;-85
2022/01/31 01:47:38;;;;;;;;;;;3.20;99.90;;;;;;5073545;28;19916;-85
2022/01/31 01:50:04;;;;;;;;;;;3.20;99.90;;;;;;5074645;28;19911;-85
2022/01/31 01:52:55;;;;;;;;;;;3.20;99.90;;;;;;5073626;28;19951;-85
2022/01/31 01:55:21;;;;;;;;;;;3.20;99.90;;;;;;5086264;28;19908;-85
2022/01/31 01:57:47;;;;;;;;;;;3.10;99.90;;;;;;5093842;28;19908;-85
2022/01/31 02:00:18;;;;;;;;;;;3.10;99.90;;;;;;5083154;28;20372;-85
2022/01/31 02:02:45;;;;;;;;;;;3.10;99.90;;;;;;5074685;28;19912;-85
2022/01/31 02:05:10;;;;;;;;;;;3.10;99.90;;;;;;5072198;28;19905;-85
2022/01/31 02:07:37;;;;;;;;;;;3.10;99.90;;;;;;5074675;28;19931;-84
2022/01/31 02:10:04;;;;;;;;;;;3.10;99.90;;;;;;5074762;28;20382;-85
2022/01/31 02:12:40;;;;;;;;;;;3.10;99.90;;;;;;5076892;28;19908;-86
2022/01/31 02:15:18;;;;;;;;;;;3.00;99.90;;;;;;5074321;28;19904;-85
2022/01/31 02:18:01;;;;;;;;;;;3.00;99.90;;;;;;5073645;28;19999;-85
2022/01/31 02:20:27;;;;;;;;;;;2.90;99.90;;;;;;5074264;28;19927;-86
2022/01/31 02:22:53;;;;;;;;;;;2.90;99.90;;;;;;5072895;28;20003;-86
2022/01/31 02:25:44;;;;;;;;;;;2.90;99.90;;;;;;5074306;28;19972;-85
2022/01/31 02:28:10;;;;;;;;;;;2.80;99.90;;;;;;5074304;28;20331;-85
2022/01/31 02:30:35;;;;;;;;;;;2.80;99.90;;;;;;5074283;28;19954;-85
2022/01/31 02:33:18;;;;;;;;;;;2.70;99.90;;;;;;5074017;28;19908;-85
2022/01/31 02:35:48;;;;;;;;;;;2.70;99.90;;;;;;5078749;28;19949;-85
2022/01/31 02:38:14;;;;;;;;;;;2.70;99.90;;;;;;5094464;28;20007;-85
2022/01/31 02:40:54;;;;;;;;;;;2.80;99.90;;;;;;5081891;28;19991;-85
2022/01/31 02:43:19;;;;;;;;;;;2.80;99.90;;;;;;5073695;28;19958;-85
2022/01/31 02:45:44;;;;;;;;;;;2.80;99.90;;;;;;5073808;28;19909;-85
2022/01/31 02:48:26;;;;;;;;;;;2.70;99.90;;;;;;5073982;28;19908;-85
2022/01/31 02:50:52;;;;;;;;;;;2.80;99.90;;;;;;5053743;28;19904;-85
2022/01/31 02:55:47;;;;;;;;;;;2.90;99.90;;;;;;5053731;28;19912;-85
2022/01/31 02:58:15;;;;;;;;;;;2.90;99.90;;;;;;5052514;28;19940;-85
2022/01/31 03:00:50;;;;;;;;;;;3.00;99.90;;;;;;5063798;28;19952;-85
2022/01/31 03:03:15;;;;;;;;;;;3.00;99.90;;;;;;5073311;28;19908;-85
2022/01/31 03:05:48;;;;;;;;;;;3.00;99.90;;;;;;5073329;28;19911;-85
2022/01/31 03:08:13;;;;;;;;;;;3.00;99.90;;;;;;5073339;28;19999;-85
2022/01/31 03:10:39;;;;;;;;;;;3.00;99.90;;;;;;5073584;28;20317;-85
2022/01/31 03:13:05;;;;;;;;;;;3.10;99.90;;;;;;5072363;28;19920;-86
2022/01/31 03:15:30;;;;;;;;;;;3.10;99.90;;;;;;5073300;28;19908;-85
2022/01/31 03:17:56;;;;;;;;;;;3.10;99.90;;;;;;5073075;28;19911;-85
2022/01/31 03:20:26;;;;;;;;;;;3.10;99.90;;;;;;5072874;28;19908;-85
2022/01/31 03:22:52;;;;;;;;;;;3.10;99.90;;;;;;5073297;28;19911;-85
2022/01/31 03:25:38;;;;;;;;;;;3.10;99.90;;;;;;5073297;28;19943;-85
2022/01/31 03:28:04;;;;;;;;;;;3.10;99.90;;;;;;5073395;28;20272;-86
2022/01/31 03:30:37;;;;;;;;;;;3.10;99.90;;;;;;5073414;28;19912;-86
2022/01/31 03:33:03;;;;;;;;;;;3.10;99.90;;;;;;5073068;28;19908;-85
2022/01/31 03:35:28;;;;;;;;;;;3.10;99.90;;;;;;5071513;28;19905;-85
2022/01/31 03:37:56;;;;;;;;;;;3.00;99.90;;;;;;5073100;28;19908;-85
2022/01/31 03:40:21;;;;;;;;;;;3.00;99.90;;;;;;5075918;28;20390;-85
2022/01/31 03:42:48;;;;;;;;;;;3.00;99.90;;;;;;5093329;28;19904;-85
2022/01/31 03:45:13;;;;;;;;;;;3.10;99.90;;;;;;5092057;28;19934;-84
2022/01/31 03:47:44;;;;;;;;;;;3.10;99.90;;;;;;5073071;28;19970;-85
2022/01/31 03:50:14;;;;;;;;;;;3.10;99.90;;;;;;5082581;28;19943;-84
2022/01/31 03:52:44;;;;;;;;;;;3.10;99.90;;;;;;5093214;28;19904;-84
2022/01/31 03:55:11;;;;;;;;;;;3.10;99.90;;;;;;5092289;28;19905;-85
2022/01/31 03:57:43;;;;;;;;;;;3.10;99.90;;;;;;5071664;28;19908;-84
2022/01/31 04:00:10;;;;;;;;;;;3.10;99.90;;;;;;5072892;28;19995;-85
2022/01/31 04:02:36;;;;;;;;;;;3.20;99.90;;;;;;5072761;28;19912;-85
2022/01/31 04:05:07;;;;;;;;;;;3.20;99.90;;;;;;5071459;28;19904;-85
2022/01/31 04:07:33;;;;;;;;;;;3.20;99.90;;;;;;5051640;28;19905;-85
2022/01/31 04:09:58;;;;;;;;;;;3.20;99.90;;;;;;5051562;28;20309;-85
2022/01/31 04:12:30;;;;;;;;;;;3.20;99.90;;;;;;5088823;28;19939;-85
2022/01/31 04:14:55;;;;;;;;;;;3.20;99.90;;;;;;5074545;28;20002;-85
2022/01/31 04:17:21;;;;;;;;;;;3.20;99.90;;;;;;5087564;28;19919;-85
2022/01/31 04:20:05;;;;;;;;;;;3.30;99.90;;;;;;5092059;28;19904;-85
2022/01/31 04:22:33;;;;;;;;;;;3.20;99.90;;;;;;5072408;28;19911;-85
2022/01/31 04:25:28;;;;;;;;;;;3.20;99.90;;;;;;5072482;28;19965;-85
2022/01/31 04:28:02;;;;;;;;;;;3.10;99.90;;;;;;5078006;28;19959;-85
2022/01/31 04:30:31;;;;;;;;;;;3.20;99.90;;;;;;5082258;28;19909;-86
2022/01/31 04:33:05;;;;;;;;;;;3.20;99.90;;;;;;5055238;28;19904;-84
2022/01/31 04:35:30;;;;;;;;;;;3.10;99.90;;;;;;5055004;28;19905;-85
2022/01/31 04:37:57;;;;;;;;;;;3.10;99.90;;;;;;5056624;28;19908;-85
2022/01/31 04:40:22;;;;;;;;;;;3.10;99.90;;;;;;5071581;28;19904;-85
2022/01/31 04:42:48;;;;;;;;;;;3.10;99.90;;;;;;5076031;28;19908;-85
2022/01/31 04:45:16;;;;;;;;;;;3.10;99.90;;;;;;5076068;28;19904;-85
2022/01/31 04:47:41;;;;;;;;;;;3.10;99.90;;;;;;5075993;28;19909;-85
2022/01/31 04:50:07;;;;;;;;;;;3.10;99.90;;;;;;5075689;28;20374;-85
2022/01/31 04:52:32;;;;;;;;;;;3.00;99.90;;;;;;5075868;28;19904;-86
2022/01/31 04:55:03;;;;;;;;;;;3.00;99.90;;;;;;5074837;28;19927;-86
2022/01/31 04:57:28;;;;;;;;;;;3.00;99.90;;;;;;5075963;28;20249;-85
2022/01/31 04:59:54;;;;;;;;;;;3.00;99.90;;;;;;5075954;28;19908;-85
2022/01/31 05:02:19;;;;;;;;;;;3.00;99.90;;;;;;5070420;28;19963;-86
2022/01/31 05:04:48;;;;;;;;;;;3.00;99.90;;;;;;5075694;28;19908;-86
2022/01/31 05:07:13;;;;;;;;;;;3.00;99.90;;;;;;5075791;28;20352;-85
2022/01/31 05:09:39;;;;;;;;;;;3.10;99.90;;;;;;5075913;28;20034;-85
2022/01/31 05:12:08;;;;;;;;;;;3.00;99.90;;;;;;5075703;28;19950;-86
2022/01/31 05:14:33;;;;;;;;;;;3.00;99.90;;;;;;5075653;28;19912;-85
2022/01/31 05:16:59;;;;;;;;;;;3.00;99.90;;;;;;5075681;28;20303;-85
2022/01/31 05:19:26;;;;;;;;;;;3.00;99.90;;;;;;5075360;28;20245;-86
2022/01/31 05:21:52;;;;;;;;;;;3.00;99.90;;;;;;5074144;28;19905;-85
2022/01/31 05:24:17;;;;;;;;;;;3.00;99.90;;;;;;5075512;28;19912;-85
2022/01/31 05:26:50;;;;;;;;;;;2.90;99.90;;;;;;5075531;28;20249;-85
2022/01/31 05:29:20;;;;;;;;;;;2.90;99.90;;;;;;5074654;28;20356;-85
2022/01/31 05:31:53;;;;;;;;;;;2.90;99.90;;;;;;5075449;28;20738;-85
2022/01/31 05:34:19;;;;;;;;;;;2.90;99.90;;;;;;5075072;28;20348;-86
2022/01/31 05:36:44;;;;;;;;;;;2.90;99.90;;;;;;5075227;28;19909;-86
2022/01/31 05:39:17;;;;;;;;;;;2.90;99.90;;;;;;5075197;28;19995;-86
2022/01/31 05:41:42;;;;;;;;;;;2.90;99.90;;;;;;5073359;28;19912;-86
2022/01/31 05:44:19;;;;;;;;;;;2.90;99.90;;;;;;5073615;28;19988;-85
2022/01/31 05:46:44;;;;;;;;;;;2.90;99.90;;;;;;5074920;28;19995;-85
2022/01/31 05:49:17;;;;;;;;;;;2.80;99.90;;;;;;5073406;28;19944;-85
2022/01/31 05:51:52;;;;;;;;;;;2.90;99.90;;;;;;5074559;28;19908;-85
2022/01/31 05:54:18;;;;;;;;;;;2.80;99.90;;;;;;5074950;28;19908;-85
2022/01/31 05:56:44;;;;;;;;;;;2.80;99.90;;;;;;5074684;28;20283;-85
2022/01/31 05:59:10;;;;;;;;;;;2.90;99.90;;;;;;5074369;28;19991;-85
2022/01/31 06:01:38;;;;;;;;;;;2.80;99.90;;;;;;5074028;28;19919;-85
2022/01/31 06:04:06;;;;;;;;;;;2.70;99.90;;;;;;5074124;28;19908;-85
2022/01/31 06:06:48;;;;;;;;;;;2.70;99.90;;;;;;5074509;28;19978;-85
2022/01/31 06:09:14;;;;;;;;;;;2.70;99.90;;;;;;5073649;28;19904;-85
2022/01/31 06:11:39;;;;;;;;;;;2.60;99.90;;;;;;5074599;28;19915;-84
2022/01/31 06:14:08;;;;;;;;;;;2.50;99.90;;;;;;5074707;28;19905;-85
2022/01/31 06:16:48;;;;;;;;;;;2.50;99.90;;;;;;5074458;28;19912;-86
2022/01/31 06:19:13;;;;;;;;;;;2.50;99.90;;;;;;5072252;28;20007;-84
2022/01/31 06:21:40;;;;;;;;;;;2.60;99.90;;;;;;5073984;28;19996;-83
2022/01/31 06:24:09;;;;;;;;;;;2.50;99.90;;;;;;5073173;28;19904;-85
2022/01/31 06:27:00;;;;;;;;;;;2.50;99.90;;;;;;5073049;28;19905;-84
2022/01/31 06:29:26;;;;;;;;;;;2.60;99.90;;;;;;5074076;28;19905;-84
2022/01/31 06:31:53;;;;;;;;;;;2.60;99.90;;;;;;5072936;28;19904;-84
2022/01/31 06:34:18;;;;;;;;;;;2.60;99.90;;;;;;5073852;28;19904;-85
2022/01/31 06:36:55;;;;;;;;;;;2.60;99.90;;;;;;5073850;28;19914;-85
2022/01/31 06:39:21;;;;;;;;;;;2.60;99.90;;;;;;5073698;28;19908;-85
2022/01/31 06:41:47;;;;;;;;;;;2.60;99.90;;;;;;5073933;28;19904;-84
2022/01/31 06:44:13;;;;;;;;;;;2.60;99.90;;;;;;5072706;28;19947;-83
2022/01/31 06:46:44;;;;;;;;;;;2.60;99.90;;;;;;5073875;28;19966;-83
2022/01/31 06:49:10;;;;;;;;;;;2.60;99.90;;;;;;5073479;28;19959;-83
2022/01/31 06:51:39;;;;;;;;;;;2.60;99.90;;;;;;5071960;28;19904;-83
2022/01/31 06:54:06;;;;;;;;;;;2.50;99.90;;;;;;5072519;28;19909;-83
2022/01/31 06:56:37;;;;;;;;;;;2.50;99.90;;;;;;5073763;28;19908;-83
2022/01/31 06:59:03;;;;;;;;;;;2.50;99.90;;;;;;5073472;28;19905;-83
2022/01/31 07:01:28;;;;;;;;;;;2.50;99.90;;;;;;5071866;28;20277;-83
2022/01/31 07:03:55;;;;;;;;;;;2.50;99.90;;;;;;5072880;28;19904;-83
2022/01/31 07:06:21;;;;;;;;;;;2.40;99.90;;;;;;5073209;28;20387;-82
2022/01/31 07:09:04;;;;;;;;;;;2.40;99.90;;;;;;5073480;28;20019;-83
2022/01/31 07:11:35;;;;;;;;;;;2.30;99.90;;;;;;5073350;28;20423;-82
2022/01/31 07:14:05;;;;;;;;;;;2.30;99.90;;;;;;5072997;28;19958;-83
2022/01/31 07:16:30;;;;;;;;;;;2.30;99.90;;;;;;5073349;28;19974;-83
2022/01/31 07:19:04;;;;;;;;;;;2.30;99.90;;;;;;5071778;28;19904;-83
2022/01/31 07:21:36;;;;;;;;;;;2.30;99.90;;;;;;5080018;28;19987;-82
2022/01/31 07:24:25;;;;;;;;;;;2.20;99.90;;;;;;5073021;28;19911;-82
2022/01/31 07:26:51;;;;;;;;;;;2.20;99.90;;;;;;5073378;28;19908;-82
2022/01/31 07:29:19;;;;;;;;;;;2.10;99.90;;;;;;5073030;28;19981;-82
2022/01/31 07:31:45;;;;;;;;;;;2.10;99.90;;;;;;5072007;28;19995;-83
2022/01/31 07:34:15;;;;;;;;;;;2.10;99.90;;;;;;5072955;28;19959;-83
2022/01/31 07:36:42;;;;;;;;;;;2.00;99.90;;;;;;5072830;28;19909;-82
2022/01/31 07:39:08;;;;;;;;;;;2.00;99.90;;;;;;5072191;28;19904;-83
2022/01/31 07:42:03;;;;;;;;;;;2.00;99.90;;;;;;5073055;28;19910;-82
2022/01/31 07:44:28;;;;;;;;;;;2.10;99.90;;;;;;5072962;28;19966;-83
2022/01/31 07:46:56;;;;;;;;;;;2.00;99.90;;;;;;5072938;28;19904;-83
2022/01/31 07:49:22;;;;;;;;;;;2.10;99.90;;;;;;5071419;28;19970;-83
2022/01/31 07:52:01;;;;;;;;;;;2.10;99.90;;;;;;5072751;28;19905;-83
2022/01/31 07:54:27;;;;;;;;;;;2.10;99.90;;;;;;5072163;28;19935;-84
2022/01/31 07:56:58;;;;;;;;;;;2.20;99.90;;;;;;5072698;28;19943;-83
2022/01/31 07:59:24;;;;;;;;;;;2.20;99.90;;;;;;5072790;28;19905;-83
2022/01/31 08:01:49;;;;;;;;;;;2.20;99.90;;;;;;5070977;28;19923;-84
2022/01/31 08:04:23;;;;;;;;;;;2.10;99.90;;;;;;5074512;28;20276;-83
2022/01/31 08:06:48;;;;;;;;;;;2.10;99.90;;;;;;5076854;28;19904;-84
2022/01/31 08:09:19;;;;;;;;;;;2.10;99.90;;;;;;5057400;28;19999;-84
2022/01/31 08:11:44;;;;;;;;;;;2.10;99.90;;;;;;5089195;28;19918;-84
2022/01/31 08:14:20;;;;;;;;;;;2.10;99.90;;;;;;5075141;28;19910;-84
2022/01/31 08:16:45;;;;;;;;;;;2.10;99.90;;;;;;5076843;28;20348;-83
2022/01/31 08:19:15;;;;;;;;;;;2.10;99.90;;;;;;5076094;28;19958;-83
2022/01/31 08:21:41;;;;;;;;;;;2.20;99.90;;;;;;5076453;28;19912;-83
2022/01/31 08:24:08;;;;;;;;;;;2.10;99.90;;;;;;5075362;28;19954;-83
2022/01/31 08:26:34;;;;;;;;;;;2.10;99.90;;;;;;5076551;28;19908;-84
2022/01/31 08:29:15;;;;;;;;;;;2.10;99.90;;;;;;5076456;28;20398;-84
2022/01/31 08:31:41;;;;;;;;;;;2.10;99.90;;;;;;5076614;28;19908;-83
2022/01/31 08:36:42;;;;;;;;;;;2.10;99.90;;;;;;5076124;28;19965;-83
2022/01/31 08:39:34;;;;;;;;;;;2.10;99.90;;;;;;5076591;28;19905;-83
2022/01/31 08:42:21;;;;;;;;;;;2.00;99.90;;;;;;5074932;28;19908;-83
2022/01/31 08:44:47;;;;;;;;;;;2.00;99.90;;;;;;5076173;28;20374;-84
2022/01/31 08:47:16;;;;;;;;;;;2.10;99.90;;;;;;5074891;28;19904;-84
2022/01/31 08:49:42;;;;;;;;;;;2.10;99.90;;;;;;5075821;28;19904;-84
2022/01/31 08:52:11;;;;;;;;;;;2.10;99.90;;;;;;5075722;28;19910;-84
2022/01/31 08:54:36;;;;;;;;;;;2.10;99.90;;;;;;5076200;28;20311;-83
2022/01/31 08:57:22;;;;;;;;;;;2.10;99.90;;;;;;5074837;28;19954;-83
2022/01/31 08:59:51;;;;;;;;;;;2.10;99.90;;;;;;5075913;28;20371;-82
2022/01/31 09:02:18;;;;;;;;;;;2.10;99.90;;;;;;5074644;28;20347;-84
2022/01/31 09:04:51;;;;;;;;;;;2.10;99.90;;;;;;5074425;28;19915;-83
2022/01/31 09:07:20;;;;;;;;;;;2.10;99.90;;;;;;5075590;28;19908;-82
2022/01/31 09:09:53;;;;;;;;;;;2.10;99.90;;;;;;5075328;28;19905;-82
2022/01/31 09:12:24;;;;;;;;;;;2.10;99.90;;;;;;5075805;28;20391;-83
2022/01/31 09:14:57;;;;;;;;;;;2.10;99.90;;;;;;5074951;28;19911;-83
2022/01/31 09:17:23;;;;;;;;;;;2.20;99.90;;;;;;5075794;28;19920;-82
2022/01/31 09:19:48;;;;;;;;;;;2.20;99.90;;;;;;5075414;28;19912;-82
2022/01/31 09:22:14;;;;;;;;;;;2.20;99.90;;;;;;5075335;28;19999;-82
2022/01/31 09:24:41;;;;;;;;;;;2.20;99.90;;;;;;5073962;28;20015;-82
2022/01/31 09:27:07;;;;;;;;;;;2.20;99.90;;;;;;5075402;28;19923;-83
2022/01/31 09:29:33;;;;;;;;;;;2.20;99.90;;;;;;5075151;28;19913;-83
2022/01/31 09:32:05;;;;;;;;;;;2.20;99.90;;;;;;5074071;28;19994;-83
2022/01/31 09:34:31;;;;;;;;;;;2.20;99.90;;;;;;5074929;28;19942;-83
2022/01/31 09:36:57;;;;;;;;;;;2.30;99.90;;;;;;5075110;28;19908;-83
2022/01/31 09:39:25;;;;;;;;;;;2.30;99.90;;;;;;5073961;28;19904;-83
2022/01/31 09:41:55;;;;;;;;;;;2.30;99.90;;;;;;5075141;28;19905;-83
2022/01/31 09:45:03;;;;;;;;;;;2.40;99.90;;;;;;5074868;28;19912;-83
2022/01/31 09:47:23;;;;;;;;;;;2.40;99.90;;;;;;5074784;28;19969;-82
2022/01/31 09:49:49;;;;;;;;;;;2.50;99.90;;;;;;5073439;28;19904;-83
2022/01/31 09:52:20;;;;;;;;;;;2.50;99.90;;;;;;5074764;28;19926;-83
2022/01/31 09:54:48;;;;;;;;;;;2.60;99.90;;;;;;5073444;28;19995;-82
2022/01/31 09:57:26;;;;;;;;;;;2.60;99.90;;;;;;5074664;28;19909;-82
2022/01/31 09:59:51;;;;;;;;;;;2.70;99.90;;;;;;5074529;28;19908;-83
2022/01/31 10:02:18;;;;;;;;;;;2.70;99.90;;;;;;5069242;28;20360;-83
2022/01/31 10:04:50;;;;;;;;;;;2.80;99.90;;;;;;5072587;28;19999;-83
2022/01/31 10:07:17;;;;;;;;;;;2.80;99.90;;;;;;5074709;28;19904;-82
2022/01/31 10:09:47;;;;;;;;;;;2.80;99.90;;;;;;5073302;28;20529;-84
2022/01/31 10:12:29;;;;;;;;;;;2.80;99.90;;;;;;5074591;28;19905;-84
2022/01/31 10:17:48;;;;;;;;;;;2.80;99.90;;;;;;5074132;28;20393;-83
2022/01/31 10:20:29;;;;;;;;;;;2.80;99.90;;;;;;5074480;28;19904;-83
2022/01/31 10:22:56;;;;;;;;;;;2.90;99.90;;;;;;5074467;28;19904;-84
2022/01/31 10:25:26;;;;;;;;;;;2.90;99.90;;;;;;5073930;28;19904;-84
2022/01/31 10:27:52;;;;;;;;;;;3.00;99.90;;;;;;5073323;28;19904;-85
2022/01/31 10:30:21;;;;;;;;;;;3.00;99.90;;;;;;5072698;28;19905;-85
2022/01/31 10:32:48;;;;;;;;;;;3.10;99.90;;;;;;5073717;28;19904;-85
2022/01/31 10:35:41;;;;;;;;;;;3.10;99.90;;;;;;5074038;28;19912;-86
2022/01/31 10:38:11;;;;;;;;;;;3.10;99.90;;;;;;5074097;28;19957;-86
2022/01/31 10:56:55;;;;;;;;;;;3.50;99.90;;;;;;5073860;28;19978;-88
2022/01/31 10:59:34;;;;;;;;;;;3.60;99.90;;;;;;5072269;28;20376;-88
2022/01/31 11:02:01;;;;;;;;;;;3.60;99.90;;;;;;5067511;28;19916;-88
2022/01/31 11:04:33;;;;;;;;;;;3.70;99.90;;;;;;5073085;28;19961;-88
2022/01/31 11:07:06;;;;;;;;;;;3.70;99.90;;;;;;5072136;28;19950;-89
2022/01/31 11:09:32;;;;;;;;;;;3.70;99.90;;;;;;5074066;28;19908;-90
2022/01/31 11:11:59;;;;;;;;;;;3.80;99.90;;;;;;5072373;28;19912;-90
2022/01/31 11:14:26;;;;;;;;;;;3.80;99.90;;;;;;5072150;28;20356;-89
2022/01/31 11:17:05;;;;;;;;;;;3.90;99.90;;;;;;5073763;28;19912;-89
2022/01/31 11:19:33;;;;;;;;;;;3.90;99.90;;;;;;5073975;28;19908;-90
2022/01/31 11:22:06;;;;;;;;;;;4.00;99.90;;;;;;5072939;28;19904;-91
2022/01/31 11:24:36;;;;;;;;;;;4.00;99.90;;;;;;5074330;28;20007;-93
2022/01/31 11:27:04;;;;;;;;;;;4.10;99.90;;;;;;5074288;28;19926;-95
2022/01/31 11:29:44;;;;;;;;;;;4.10;99.90;;;;;;5075248;28;19910;-92
2022/01/31 11:32:10;;;;;;;;;;;4.20;99.90;;;;;;5073976;28;19955;-92
2022/01/31 11:34:39;;;;;;;;;;;4.10;99.90;;;;;;5074157;28;19940;-93
2022/01/31 11:37:16;;;;;;;;;;;4.20;99.90;;;;;;5073489;28;20311;-93
2022/01/31 11:39:42;;;;;;;;;;;4.20;99.90;;;;;;5073396;28;19912;-93
2022/01/31 11:42:09;;;;;;;;;;;4.20;99.90;;;;;;5073516;28;19919;-92
2022/01/31 11:44:57;;;;;;;;;;;4.20;99.90;;;;;;5073475;28;19905;-91
2022/01/31 11:47:23;;;;;;;;;;;4.20;99.90;;;;;;5073149;28;20276;-91
2022/01/31 11:50:05;;;;;;;;;;;4.30;99.90;;;;;;5073654;28;19935;-92
2022/01/31 11:55:43;;;;;;;;;;;4.30;99.90;;;;;;5013463;28;20108;-93
2022/01/31 11:58:09;;;;;;;;;;;4.50;99.90;;;;;;5073764;28;19915;-93
2022/01/31 12:00:36;;;;;;;;;;;4.60;99.90;;;;;;5074633;28;19954;-92
2022/01/31 12:03:04;;;;;;;;;;;4.70;99.90;;;;;;5070139;28;19912;-95
2022/01/31 12:08:41;;;;;;;;;;;4.80;99.90;;;;;;5076069;28;19950;-95
2022/01/31 12:11:22;;;;;;;;;;;4.70;99.90;;;;;;5074041;28;20349;-96
2022/01/31 12:13:50;;;;;;;;;;;4.70;99.90;;;;;;5073480;28;19919;-93
2022/01/31 12:22:37;;;;;;;;;;;4.80;99.90;;;;;;5076651;28;19926;-96
2022/01/31 12:34:22;;;;;;;;;;;4.60;99.90;;;;;;5014431;28;20033;-94
2022/01/31 12:40:00;;;;;;;;;;;4.50;99.90;;;;;;5013771;28;19916;-93
2022/01/31 12:52:06;;;;;;;;;;;4.70;99.90;;;;;;5078450;28;19965;-95
2022/01/31 12:55:13;;;;;;;;;;;4.80;99.90;;;;;;5076907;28;19943;-92
2022/01/31 13:00:43;;;;;;;;;;;4.90;99.90;;;;;;5081342;28;19962;-93
2022/01/31 13:06:49;;;;;;;;;;;5.00;99.90;;;;;;5065525;28;19919;-96
2022/01/31 13:09:37;;;;;;;;;;;4.90;99.90;;;;;;5076081;28;20356;-91
2022/01/31 13:12:05;;;;;;;;;;;4.90;99.90;;;;;;5076983;28;19950;-92
2022/01/31 13:17:36;;;;;;;;;;;4.90;99.90;;;;;;5077316;28;19935;-93
2022/01/31 13:20:06;;;;;;;;;;;4.80;99.90;;;;;;5076324;28;19954;-93
2022/01/31 13:22:38;;;;;;;;;;;4.80;99.90;;;;;;5076051;28;20383;-93
2022/01/31 13:25:10;;;;;;;;;;;4.80;99.90;;;;;;5076038;28;19927;-96
2022/01/31 13:30:38;;;;;;;;;;;4.80;99.90;;;;;;5077240;28;19950;-93
2022/01/31 13:39:23;;;;;;;;;;;4.80;99.90;;;;;;5076837;28;20276;-92
2022/01/31 13:41:59;;;;;;;;;;;4.80;99.90;;;;;;5075427;28;19904;-95
2022/01/31 13:44:25;;;;;;;;;;;4.80;99.90;;;;;;5055608;28;20390;-93
2022/01/31 13:46:53;;;;;;;;;;;4.70;99.90;;;;;;5056475;28;19948;-93
2022/01/31 13:52:22;;;;;;;;;;;4.70;99.90;;;;;;5076045;28;19955;-93
2022/01/31 14:01:38;;;;;;;;;;;4.70;99.90;;;;;;5076533;28;20330;-92
2022/01/31 14:04:04;;;;;;;;;;;4.60;99.90;;;;;;4978952;28;20297;-93
2022/01/31 14:06:47;;;;;;;;;;;4.60;99.90;;;;;;5059867;28;19923;-94
2022/01/31 14:09:12;;;;;;;;;;;4.60;99.90;;;;;;5075061;28;19904;-95
2022/01/31 14:11:42;;;;;;;;;;;4.60;99.90;;;;;;5074969;28;20025;-96
2022/01/31 14:17:10;;;;;;;;;;;4.50;99.90;;;;;;5076210;28;19930;-93
2022/01/31 14:22:41;;;;;;;;;;;4.50;99.90;;;;;;5076246;28;20322;-93
2022/01/31 14:25:27;;;;;;;;;;;4.60;99.90;;;;;;5075170;28;20348;-95
2022/01/31 14:27:55;;;;;;;;;;;4.50;99.90;;;;;;5075061;28;19958;-93
2022/01/31 14:30:21;;;;;;;;;;;4.50;99.90;;;;;;5074744;28;20000;-95
2022/01/31 14:33:01;;;;;;;;;;;4.50;99.90;;;;;;5074523;28;19904;-93
2022/01/31 14:35:34;;;;;;;;;;;4.50;99.90;;;;;;5074805;28;20399;-93
2022/01/31 14:41:15;;;;;;;;;;;4.40;99.90;;;;;;5074806;28;19911;-93
2022/01/31 14:49:30;;;;;;;;;;;4.10;99.90;;;;;;5075069;28;19942;-93
2022/01/31 14:52:02;;;;;;;;;;;4.00;99.90;;;;;;5073624;28;19912;-93
2022/01/31 14:54:27;;;;;;;;;;;3.90;99.90;;;;;;5074090;28;19905;-92
2022/01/31 14:57:12;;;;;;;;;;;3.80;99.90;;;;;;5074002;28;19908;-93
2022/01/31 14:59:38;;;;;;;;;;;3.70;99.90;;;;;;5070839;28;19920;-94
2022/01/31 15:02:04;;;;;;;;;;;3.70;99.90;;;;;;5070903;28;19996;-95
2022/01/31 15:07:32;;;;;;;;;;;3.50;99.90;;;;;;5054953;28;19996;-93
2022/01/31 15:09:57;;;;;;;;;;;3.50;99.90;;;;;;5070008;28;19960;-91
2022/01/31 15:12:46;;;;;;;;;;;3.40;99.90;;;;;;5069142;28;19991;-91
2022/01/31 15:15:14;;;;;;;;;;;3.40;99.90;;;;;;5069291;28;19905;-91
2022/01/31 15:17:44;;;;;;;;;;;3.40;99.90;;;;;;5072297;28;19939;-90
2022/01/31 15:20:16;;;;;;;;;;;3.20;99.90;;;;;;5073043;28;19904;-91
2022/01/31 15:22:41;;;;;;;;;;;3.20;99.90;;;;;;5072534;28;19951;-90
2022/01/31 15:25:13;;;;;;;;;;;3.10;99.90;;;;;;5073816;28;19948;-91
2022/01/31 15:27:38;;;;;;;;;;;3.10;99.90;;;;;;5072276;28;19909;-89
2022/01/31 15:30:06;;;;;;;;;;;3.00;99.90;;;;;;5072247;28;20402;-89
2022/01/31 15:32:35;;;;;;;;;;;2.90;99.90;;;;;;5073058;28;20288;-89
2022/01/31 15:38:05;;;;;;;;;;;2.90;99.90;;;;;;5073262;28;19915;-90
2022/01/31 15:40:31;;;;;;;;;;;2.80;99.90;;;;;;5072181;28;20019;-89
2022/01/31 15:43:11;;;;;;;;;;;2.80;99.90;;;;;;5073213;28;19995;-89
2022/01/31 15:45:37;;;;;;;;;;;2.80;99.90;;;;;;5053459;28;19905;-90
2022/01/31 15:48:02;;;;;;;;;;;2.70;99.90;;;;;;5051707;28;19995;-90
2022/01/31 15:50:29;;;;;;;;;;;2.60;99.90;;;;;;5052152;28;19908;-90
2022/01/31 15:52:54;;;;;;;;;;;2.60;99.90;;;;;;5053575;28;19905;-89
2022/01/31 15:58:28;;;;;;;;;;;2.50;99.90;;;;;;5073228;28;19935;-90
2022/01/31 16:00:56;;;;;;;;;;;2.50;99.90;;;;;;5073288;28;20349;-90
2022/01/31 16:03:22;;;;;;;;;;;2.40;99.90;;;;;;5071566;28;19959;-90
2022/01/31 16:05:47;;;;;;;;;;;2.40;99.90;;;;;;5073062;28;20558;-90
2022/01/31 16:08:13;;;;;;;;;;;2.40;99.90;;;;;;5071922;28;19992;-91
2022/01/31 16:10:41;;;;;;;;;;;2.40;99.90;;;;;;5072182;28;19912;-91
2022/01/31 16:13:22;;;;;;;;;;;2.30;99.90;;;;;;5072877;28;19991;-90
2022/01/31 16:15:48;;;;;;;;;;;2.30;99.90;;;;;;5073303;28;19904;-90
2022/01/31 16:18:14;;;;;;;;;;;2.30;99.90;;;;;;5071643;28;19912;-90
2022/01/31 16:20:47;;;;;;;;;;;2.30;99.90;;;;;;5073080;28;20344;-90
2022/01/31 16:23:13;;;;;;;;;;;2.20;99.90;;;;;;5071602;28;19930;-89
2022/01/31 16:25:50;;;;;;;;;;;2.20;99.90;;;;;;5074239;28;20014;-90
2022/01/31 16:28:19;;;;;;;;;;;2.20;99.90;;;;;;5075574;28;19953;-91
2022/01/31 16:30:51;;;;;;;;;;;2.10;99.90;;;;;;5075641;28;19904;-90
2022/01/31 16:33:18;;;;;;;;;;;2.10;99.90;;;;;;5074859;28;20360;-90
2022/01/31 16:35:45;;;;;;;;;;;2.20;99.90;;;;;;5076446;28;19904;-90
2022/01/31 16:38:12;;;;;;;;;;;2.10;99.90;;;;;;5076161;28;20295;-90
2022/01/31 16:40:43;;;;;;;;;;;2.00;99.90;;;;;;5074932;28;19912;-89